createdAt,value
2022-08-28T00:02:01.764Z,24.86
2022-08-28T00:07:23.270Z,24.34
2022-08-28T00:12:47.167Z,23.57
2022-08-28T00:18:09.022Z,24.40
2022-08-28T00:23:42.274Z,23.84
2022-08-28T00:29:05.567Z,24.05
2022-08-28T00:34:32.993Z,24.41
2022-08-28T00:39:55.309Z,24.54
2022-08-28T00:45:20.564Z,25.05
2022-08-28T00:51:00.958Z,25.12
2022-08-28T00:56:23.516Z,24.83
2022-08-28T01:01:47.663Z,24.43
2022-08-28T01:07:13.156Z,24.04
2022-08-28T01:12:36.021Z,23.69
2022-08-28T01:18:07.369Z,23.54
2022-08-28T01:23:57.984Z,23.96
2022-08-28T01:29:20.988Z,24.06
2022-08-28T01:34:42.417Z,24.34
2022-08-28T01:40:09.556Z,24.94
2022-08-28T01:45:32.297Z,26.28
2022-08-28T01:50:55.517Z,28.15
2022-08-28T01:56:17.969Z,28.99
2022-08-28T02:01:42.784Z,30.28
2022-08-28T02:07:04.495Z,31.02
2022-08-28T02:12:26.101Z,30.42
2022-08-28T02:17:47.973Z,29.15
2022-08-28T02:23:10.107Z,30.05
2022-08-28T02:28:31.879Z,29.92
2022-08-28T02:33:53.690Z,29.99
2022-08-28T02:39:16.782Z,30.63
2022-08-28T02:44:38.817Z,30.25
2022-08-28T02:50:00.504Z,30.59
2022-08-28T02:55:24.774Z,31.51
2022-08-28T03:00:46.374Z,32.56
2022-08-28T03:06:08.820Z,33.11
2022-08-28T03:11:30.414Z,32.52
2022-08-28T03:16:52.933Z,32.50
2022-08-28T03:22:14.400Z,31.78
2022-08-28T03:27:36.253Z,31.71
2022-08-28T03:32:57.744Z,31.06
2022-08-28T03:38:19.944Z,31.74
2022-08-28T03:43:41.754Z,31.19
2022-08-28T03:49:04.605Z,30.58
2022-08-28T03:54:26.376Z,30.01
2022-08-28T03:59:53.373Z,29.82
2022-08-28T04:05:15.017Z,29.80
2022-08-28T04:10:36.924Z,29.70
2022-08-28T04:16:00.539Z,29.92
2022-08-28T04:21:24.522Z,29.44
2022-08-28T04:26:46.002Z,29.01
2022-08-28T04:32:07.848Z,29.27
2022-08-28T04:37:29.383Z,29.02
2022-08-28T04:42:51.901Z,28.98
2022-08-28T04:48:14.652Z,28.47
2022-08-28T04:53:38.608Z,28.48
2022-08-28T04:59:01.605Z,28.73
2022-08-28T05:04:23.129Z,27.43
2022-08-28T05:09:44.893Z,28.14
2022-08-28T05:15:06.938Z,27.90
2022-08-28T05:20:28.459Z,27.83
2022-08-28T05:25:50.072Z,27.59
2022-08-28T05:31:16.576Z,27.21
2022-08-28T05:36:39.694Z,26.75
2022-08-28T05:42:01.182Z,26.63
2022-08-28T05:47:22.521Z,26.49
2022-08-28T05:52:44.848Z,26.17
2022-08-28T05:58:26.189Z,24.62
2022-08-28T06:03:55.332Z,21.10
2022-08-28T06:09:28.105Z,20.33
2022-08-28T06:14:50.846Z,18.10
2022-08-28T06:20:13.026Z,17.15
2022-08-28T06:25:45.261Z,17.08
2022-08-28T06:31:24.657Z,16.53
2022-08-28T06:36:53.117Z,15.28
2022-08-28T06:42:15.974Z,14.81
2022-08-28T06:47:37.279Z,13.25
2022-08-28T06:52:59.132Z,13.46
2022-08-28T06:58:20.776Z,12.85
2022-08-28T07:03:44.330Z,13.22
2022-08-28T07:09:09.556Z,13.51
2022-08-28T07:14:30.864Z,13.68
2022-08-28T07:19:52.135Z,13.00
2022-08-28T07:25:15.808Z,12.64
2022-08-28T07:30:37.809Z,12.13
2022-08-28T07:36:00.536Z,11.95
2022-08-28T07:41:31.982Z,11.37
2022-08-28T07:46:55.649Z,12.14
2022-08-28T07:52:17.050Z,12.50
2022-08-28T07:57:38.434Z,14.78
2022-08-28T08:03:00.100Z,13.23
2022-08-28T08:08:22.520Z,12.75
2022-08-28T08:13:46.900Z,12.08
2022-08-28T08:19:16.920Z,12.02
2022-08-28T08:24:38.523Z,11.20
2022-08-28T08:30:01.269Z,10.06
2022-08-28T08:35:24.555Z,12.39
2022-08-28T08:40:47.532Z,11.32
2022-08-28T08:46:10.279Z,11.61
2022-08-28T08:51:43.215Z,11.77
2022-08-28T08:57:05.146Z,12.56
2022-08-28T09:02:34.662Z,14.00
2022-08-28T09:08:01.177Z,15.36
2022-08-28T09:13:34.252Z,16.17
2022-08-28T09:18:58.044Z,16.13
2022-08-28T09:24:35.659Z,15.61
2022-08-28T09:29:59.168Z,16.33
2022-08-28T09:35:32.562Z,15.66
2022-08-28T09:41:30.030Z,16.53
2022-08-28T09:46:52.674Z,15.82
2022-08-28T09:52:25.008Z,16.07
2022-08-28T09:57:48.572Z,15.56
2022-08-28T10:03:27.860Z,15.78
2022-08-28T10:09:01.654Z,15.55
2022-08-28T10:14:34.594Z,16.07
2022-08-28T10:20:17.910Z,15.78
2022-08-28T10:25:59.340Z,16.54
2022-08-28T10:31:43.546Z,16.78
2022-08-28T10:37:16.668Z,16.04
2022-08-28T10:42:47.967Z,16.26
2022-08-28T10:48:33.615Z,16.56
2022-08-28T10:54:24.948Z,15.66
2022-08-28T10:59:51.359Z,15.42
2022-08-28T11:05:13.365Z,15.17
2022-08-28T11:10:45.556Z,15.34
2022-08-28T11:16:18.428Z,16.21
2022-08-28T11:21:42.636Z,15.90
2022-08-28T11:27:20.912Z,15.86
2022-08-28T11:32:51.516Z,16.04
2022-08-28T11:38:42.032Z,16.00
2022-08-28T11:44:09.686Z,15.03
2022-08-28T11:49:39.325Z,15.54
2022-08-28T11:55:16.322Z,15.55
2022-08-28T12:00:58.057Z,15.59
2022-08-28T12:06:44.893Z,15.82
2022-08-28T12:12:13.770Z,15.90
2022-08-28T12:17:46.867Z,15.59
2022-08-28T12:23:23.817Z,15.86
2022-08-28T12:28:48.620Z,15.88
2022-08-28T12:34:24.655Z,15.88
2022-08-28T12:39:45.971Z,16.67
2022-08-28T12:45:11.292Z,15.37
2022-08-28T12:50:39.294Z,15.62
2022-08-28T12:56:01.097Z,15.67
2022-08-28T13:01:31.730Z,16.06
2022-08-28T13:07:01.997Z,15.63
2022-08-28T13:12:55.281Z,15.92
2022-08-28T13:18:52.321Z,16.18
2022-08-28T13:24:27.532Z,16.40
2022-08-28T13:29:57.389Z,16.51
2022-08-28T13:35:21.034Z,16.23
2022-08-28T13:40:59.377Z,16.32
2022-08-28T13:46:21.569Z,16.06
2022-08-28T13:51:43.567Z,16.80
2022-08-28T13:57:05.698Z,17.01
2022-08-28T14:02:46.684Z,17.72
2022-08-28T14:08:08.647Z,17.41
2022-08-28T14:13:31.409Z,17.45
2022-08-28T14:18:54.839Z,15.80
2022-08-28T14:24:19.116Z,15.34
2022-08-28T14:29:41.699Z,15.26
2022-08-28T14:35:05.975Z,16.03
2022-08-28T14:40:27.424Z,15.63
2022-08-28T14:45:50.493Z,16.32
2022-08-28T14:51:11.943Z,16.96
2022-08-28T14:56:33.648Z,17.33
2022-08-28T15:02:00.344Z,17.20
2022-08-28T15:07:23.007Z,17.76
2022-08-28T15:12:44.784Z,17.80
2022-08-28T15:18:10.661Z,18.14
2022-08-28T15:23:32.852Z,18.28
2022-08-28T15:29:02.508Z,18.61
2022-08-28T15:34:27.573Z,18.11
2022-08-28T15:40:08.254Z,18.02
2022-08-28T15:45:30.185Z,18.36
2022-08-28T15:50:52.577Z,18.66
2022-08-28T15:56:15.663Z,18.78
2022-08-28T16:01:38.675Z,19.38
2022-08-28T16:07:01.177Z,19.76
2022-08-28T16:12:23.139Z,20.31
2022-08-28T16:17:44.852Z,19.83
2022-08-28T16:23:06.184Z,20.11
2022-08-28T16:28:28.945Z,20.26
2022-08-28T16:33:50.966Z,20.38
2022-08-28T16:39:12.346Z,20.81
2022-08-28T16:44:35.086Z,21.59
2022-08-28T16:49:58.306Z,21.34
2022-08-28T16:55:19.943Z,21.21
2022-08-28T17:00:52.828Z,22.32
2022-08-28T17:06:19.758Z,22.33
2022-08-28T17:11:42.277Z,22.60
2022-08-28T17:17:04.899Z,22.83
2022-08-28T17:22:32.704Z,23.20
2022-08-28T17:27:54.830Z,23.32
2022-08-28T17:33:16.435Z,23.71
2022-08-28T17:38:38.614Z,23.83
2022-08-28T17:44:01.153Z,23.79
2022-08-28T17:49:22.973Z,23.68
2022-08-28T17:54:56.292Z,24.28
2022-08-28T18:00:18.507Z,23.67
2022-08-28T18:05:41.477Z,24.03
2022-08-28T18:11:02.940Z,24.12
2022-08-28T18:16:28.892Z,23.96
2022-08-28T18:21:51.982Z,24.06
2022-08-28T18:27:13.526Z,23.40
2022-08-28T18:32:35.279Z,23.23
2022-08-28T18:37:56.778Z,23.47
2022-08-28T18:43:20.483Z,23.34
2022-08-28T18:48:43.224Z,23.32
2022-08-28T18:54:04.660Z,22.42
2022-08-28T18:59:31.862Z,23.35
2022-08-28T19:04:53.619Z,22.63
2022-08-28T19:10:32.812Z,22.53
2022-08-28T19:15:55.803Z,22.63
2022-08-28T19:21:19.833Z,22.88
2022-08-28T19:26:41.388Z,23.14
2022-08-28T19:32:03.283Z,22.97
2022-08-28T19:37:25.412Z,23.26
2022-08-28T19:42:46.921Z,22.86
2022-08-28T19:48:08.850Z,23.39
2022-08-28T19:53:31.809Z,23.32
2022-08-28T19:58:54.962Z,23.13
2022-08-28T20:04:17.978Z,23.33
2022-08-28T20:09:39.716Z,23.46
2022-08-28T20:15:03.629Z,23.27
2022-08-28T20:20:29.752Z,23.19
2022-08-28T20:25:51.884Z,23.42
2022-08-28T20:31:18.151Z,23.73
2022-08-28T20:36:40.210Z,23.74
2022-08-28T20:42:01.525Z,24.01
2022-08-28T20:47:23.541Z,23.74
2022-08-28T20:52:45.491Z,24.26
2022-08-28T20:58:07.294Z,23.75
2022-08-28T21:03:29.182Z,23.60
2022-08-28T21:08:50.761Z,24.99
2022-08-28T21:14:12.673Z,24.60
2022-08-28T21:19:40.670Z,24.56
2022-08-28T21:25:02.719Z,24.40
2022-08-28T21:30:25.496Z,23.90
2022-08-28T21:35:51.040Z,24.83
2022-08-28T21:41:14.409Z,24.47
2022-08-28T21:46:35.805Z,24.29
2022-08-28T21:52:01.265Z,24.65
2022-08-28T21:57:22.775Z,24.97
2022-08-28T22:02:44.631Z,25.28
2022-08-28T22:08:05.787Z,25.42
2022-08-28T22:13:27.488Z,25.39
2022-08-28T22:18:49.116Z,27.83
2022-08-28T22:24:12.110Z,34.94
2022-08-28T22:29:36.721Z,40.67
2022-08-28T22:34:58.109Z,44.10
2022-08-28T22:40:20.746Z,46.17
2022-08-28T22:46:23.918Z,47.28
2022-08-28T22:51:45.473Z,48.23
2022-08-28T22:57:07.122Z,48.96
2022-08-28T23:02:28.996Z,49.58
2022-08-28T23:07:50.779Z,50.00
2022-08-28T23:13:14.287Z,50.36
2022-08-28T23:19:06.128Z,50.92
2022-08-28T23:24:17.937Z,51.67
2022-08-28T23:29:39.730Z,51.71
2022-08-28T23:35:01.299Z,52.52
2022-08-28T23:40:24.838Z,52.33
2022-08-28T23:45:46.254Z,52.69
2022-08-28T23:51:11.839Z,52.54
2022-08-28T23:56:33.841Z,54.11
